Time;durP1;ratioP1;P1;durP2;ratioP2;P2;SDS_P1;SDS_P2;PMS_P1;PMS_P2;Temp;Humidity;BMP_temperature;BMP_pressure;BME280_temperature;BME280_humidity;BME280_pressure;Samples;Min_cycle;Max_cycle;Signal;HPM_P1;HPM_P2
2021/09/08 00:00:34;;;;;;;27.10;21.73;;;13.50;99.90;;;;;;5018326;28;20502;-76
2021/09/08 00:03:00;;;;;;;29.20;20.02;;;13.40;99.90;;;;;;5031835;28;20464;-75
2021/09/08 00:05:26;;;;;;;26.65;20.17;;;13.40;99.90;;;;;;5048172;22;20491;-73
2021/09/08 00:07:53;;;;;;;24.45;20.88;;;13.40;99.90;;;;;;5019654;28;20117;-73
2021/09/08 00:10:18;;;;;;;30.08;22.70;;;13.40;99.90;;;;;;5011748;28;20052;-72
2021/09/08 00:12:44;;;;;;;34.78;21.75;;;13.30;99.90;;;;;;5011839;28;20460;-74
2021/09/08 00:15:12;;;;;;;32.60;22.40;;;13.20;99.90;;;;;;5011241;28;20121;-72
2021/09/08 00:17:38;;;;;;;34.22;22.83;;;13.20;99.90;;;;;;5011679;28;20101;-73
2021/09/08 00:20:05;;;;;;;30.30;23.30;;;13.20;99.90;;;;;;5011642;28;20030;-72
2021/09/08 00:22:31;;;;;;;26.20;20.67;;;13.20;99.90;;;;;;5010925;28;20336;-72
2021/09/08 00:24:58;;;;;;;28.90;23.02;;;13.10;99.90;;;;;;5011166;28;20018;-74
2021/09/08 00:27:24;;;;;;;30.20;22.00;;;13.10;99.90;;;;;;5011820;28;20114;-72
2021/09/08 00:29:49;;;;;;;33.30;23.35;;;13.10;99.90;;;;;;5011782;28;20049;-73
2021/09/08 00:32:15;;;;;;;28.95;21.10;;;13.10;99.90;;;;;;5011702;28;20480;-72
2021/09/08 00:34:41;;;;;;;30.15;22.10;;;13.00;99.90;;;;;;5011200;28;20472;-71
2021/09/08 00:37:06;;;;;;;32.72;23.55;;;13.00;99.90;;;;;;5026937;28;20053;-72
2021/09/08 00:39:32;;;;;;;27.50;22.23;;;13.00;99.90;;;;;;5030486;28;20025;-73
2021/09/08 00:41:58;;;;;;;26.00;21.25;;;13.00;99.90;;;;;;5035262;28;20476;-73
2021/09/08 00:44:27;;;;;;;33.83;22.65;;;12.90;99.90;;;;;;5034449;28;20041;-72
2021/09/08 00:46:52;;;;;;;31.52;23.65;;;13.00;99.90;;;;;;5034468;28;20037;-72
2021/09/08 00:49:18;;;;;;;30.65;23.92;;;12.90;99.90;;;;;;5035166;28;20022;-73
2021/09/08 00:51:46;;;;;;;27.60;21.73;;;12.90;99.90;;;;;;5035093;28;20442;-72
2021/09/08 00:54:14;;;;;;;30.10;21.60;;;12.80;99.90;;;;;;5034881;28;20032;-72
2021/09/08 00:56:44;;;;;;;32.08;23.02;;;12.80;99.90;;;;;;5035116;28;20036;-72
2021/09/08 00:59:10;;;;;;;33.40;22.08;;;12.80;99.90;;;;;;5039826;28;20049;-72
2021/09/08 01:01:36;;;;;;;28.67;21.83;;;12.70;99.90;;;;;;5045858;28;20283;-72
2021/09/08 01:04:02;;;;;;;30.55;23.40;;;12.70;99.90;;;;;;5043233;28;20025;-72
2021/09/08 01:06:27;;;;;;;30.55;23.65;;;12.80;99.90;;;;;;5059371;28;20033;-73
2021/09/08 01:08:54;;;;;;;28.10;22.65;;;12.70;99.90;;;;;;5056423;28;20463;-73
2021/09/08 01:11:20;;;;;;;31.00;23.52;;;12.70;99.90;;;;;;5054781;28;20033;-73
2021/09/08 01:13:46;;;;;;;30.83;23.80;;;12.60;99.90;;;;;;5054699;28;20526;-73
2021/09/08 01:16:12;;;;;;;31.73;23.02;;;12.70;99.90;;;;;;5053691;28;20128;-73
2021/09/08 01:18:38;;;;;;;36.70;24.55;;;12.60;99.90;;;;;;5054763;28;20108;-73
2021/09/08 01:21:04;;;;;;;33.42;23.13;;;12.60;99.90;;;;;;5053013;28;20479;-73
2021/09/08 01:23:32;;;;;;;26.17;20.33;;;12.60;99.90;;;;;;5054210;28;20078;-73
2021/09/08 01:26:03;;;;;;;26.42;21.25;;;12.50;99.90;;;;;;5053792;28;20515;-73
2021/09/08 01:28:30;;;;;;;30.17;22.13;;;12.50;99.90;;;;;;5054389;28;20079;-74
2021/09/08 01:30:58;;;;;;;26.60;21.63;;;12.60;99.90;;;;;;5054395;28;20025;-73
2021/09/08 01:33:24;;;;;;;28.15;22.45;;;12.60;99.90;;;;;;5054450;28;20503;-73
2021/09/08 01:35:50;;;;;;;31.40;23.98;;;12.50;99.90;;;;;;5046522;28;20029;-73
2021/09/08 01:38:17;;;;;;;31.35;23.15;;;12.40;99.90;;;;;;5034161;28;20547;-73
2021/09/08 01:40:43;;;;;;;30.77;24.13;;;12.40;99.90;;;;;;5034237;28;20490;-72
2021/09/08 01:43:09;;;;;;;29.52;22.95;;;12.40;99.90;;;;;;5034697;28;20022;-72
2021/09/08 01:45:38;;;;;;;30.33;22.80;;;12.30;99.90;;;;;;5034633;28;20049;-72
2021/09/08 01:48:04;;;;;;;37.17;23.48;;;12.30;99.90;;;;;;5034405;28;20076;-73
2021/09/08 01:50:30;;;;;;;31.67;23.30;;;12.30;99.90;;;;;;5033705;28;20025;-73
2021/09/08 01:52:56;;;;;;;31.55;23.83;;;12.30;99.90;;;;;;5033412;28;20502;-73
2021/09/08 01:55:23;;;;;;;29.15;22.83;;;12.20;99.90;;;;;;5033306;28;20025;-72
2021/09/08 01:57:49;;;;;;;31.55;23.75;;;12.10;99.90;;;;;;5033837;28;20036;-72
2021/09/08 02:00:15;;;;;;;37.28;24.83;;;12.10;99.90;;;;;;5033674;28;20383;-73
2021/09/08 02:02:42;;;;;;;34.00;24.30;;;12.10;99.90;;;;;;5033517;28;20025;-74
2021/09/08 02:05:09;;;;;;;31.80;22.92;;;12.10;99.90;;;;;;5033497;28;20025;-73
2021/09/08 02:07:34;;;;;;;34.92;23.85;;;12.10;99.90;;;;;;5053213;28;20474;-73
2021/09/08 02:10:00;;;;;;;32.85;23.58;;;12.10;99.90;;;;;;5053389;28;20033;-74
2021/09/08 02:12:26;;;;;;;34.15;24.35;;;12.10;99.90;;;;;;5053402;28;20021;-73
2021/09/08 02:14:51;;;;;;;33.05;24.38;;;12.00;99.90;;;;;;5052817;28;20056;-73
2021/09/08 02:17:17;;;;;;;32.60;23.95;;;11.90;99.90;;;;;;5053325;28;20053;-73
2021/09/08 02:19:43;;;;;;;30.90;22.60;;;11.90;99.90;;;;;;5053336;28;20071;-73
2021/09/08 02:22:08;;;;;;;29.60;23.23;;;11.90;99.90;;;;;;5052936;28;20021;-74
2021/09/08 02:24:34;;;;;;;29.23;22.75;;;11.90;99.90;;;;;;5052708;28;20021;-72
2021/09/08 02:27:00;;;;;;;31.40;22.90;;;11.90;99.90;;;;;;5051963;28;20552;-72
2021/09/08 02:29:25;;;;;;;34.53;24.80;;;11.80;99.90;;;;;;5053092;28;20437;-73
2021/09/08 02:31:51;;;;;;;30.52;22.92;;;11.80;99.90;;;;;;5053166;28;20021;-72
2021/09/08 02:34:17;;;;;;;34.72;24.55;;;11.80;99.90;;;;;;5052705;28;20036;-76
2021/09/08 02:36:42;;;;;;;34.60;25.33;;;11.80;99.90;;;;;;5038872;28;20411;-72
2021/09/08 02:39:08;;;;;;;30.45;22.70;;;11.70;99.90;;;;;;5032913;28;20483;-72
2021/09/08 02:41:34;;;;;;;33.08;25.00;;;11.80;99.90;;;;;;5033132;28;20025;-73
2021/09/08 02:44:00;;;;;;;31.48;24.38;;;11.70;99.90;;;;;;5033093;28;20029;-73
2021/09/08 02:46:26;;;;;;;29.77;23.33;;;11.80;99.90;;;;;;5030843;28;20502;-72
2021/09/08 02:48:52;;;;;;;32.25;24.67;;;11.70;99.90;;;;;;5032762;28;20030;-71
2021/09/08 02:51:18;;;;;;;34.42;23.98;;;11.70;99.90;;;;;;5032548;28;20037;-72
2021/09/08 02:53:44;;;;;;;28.48;22.20;;;11.60;99.90;;;;;;5032912;28;20033;-73
2021/09/08 02:56:09;;;;;;;33.72;24.77;;;11.60;99.90;;;;;;5030561;28;20030;-73
2021/09/08 02:58:35;;;;;;;37.53;24.27;;;11.60;99.90;;;;;;5032636;28;20021;-72
2021/09/08 03:01:01;;;;;;;30.40;22.83;;;11.50;99.90;;;;;;5032735;28;20128;-72
2021/09/08 03:03:27;;;;;;;33.10;25.30;;;11.50;99.90;;;;;;5031346;28;20513;-72
2021/09/08 03:05:53;;;;;;;31.55;23.38;;;11.50;99.90;;;;;;5031688;28;20037;-72
2021/09/08 03:08:19;;;;;;;31.85;24.80;;;11.50;99.90;;;;;;5031222;28;20028;-73
2021/09/08 03:10:45;;;;;;;33.47;24.10;;;11.40;99.90;;;;;;5031193;28;20026;-72
2021/09/08 03:13:12;;;;;;;31.48;22.80;;;11.40;99.90;;;;;;5032710;28;20029;-72
2021/09/08 03:15:38;;;;;;;33.38;24.02;;;11.40;99.90;;;;;;5031641;28;20048;-72
2021/09/08 03:18:05;;;;;;;33.53;25.45;;;11.40;99.90;;;;;;5032440;28;20049;-71
2021/09/08 03:20:30;;;;;;;33.95;25.00;;;11.40;99.90;;;;;;5032268;28;20514;-72
2021/09/08 03:22:56;;;;;;;35.83;25.85;;;11.40;99.90;;;;;;5032022;28;20065;-73
2021/09/08 03:25:22;;;;;;;31.60;24.48;;;11.40;99.90;;;;;;5030358;28;20056;-72
2021/09/08 03:27:47;;;;;;;34.55;24.70;;;11.30;99.90;;;;;;5032334;28;20108;-72
2021/09/08 03:30:13;;;;;;;32.35;23.00;;;11.30;99.90;;;;;;5032093;28;20029;-72
2021/09/08 03:32:38;;;;;;;38.70;24.63;;;11.30;99.90;;;;;;5032041;28;20026;-72
2021/09/08 03:35:05;;;;;;;32.72;23.98;;;11.30;99.90;;;;;;5044753;28;20027;-71
2021/09/08 03:37:30;;;;;;;32.42;23.40;;;11.30;99.90;;;;;;5051359;28;20048;-73
2021/09/08 03:39:56;;;;;;;34.15;23.45;;;11.20;99.90;;;;;;5051853;28;20483;-71
2021/09/08 03:42:24;;;;;;;33.28;23.30;;;11.20;99.90;;;;;;5050703;28;20104;-72
2021/09/08 03:44:50;;;;;;;30.92;24.60;;;11.10;99.90;;;;;;5051536;28;20017;-72
2021/09/08 03:47:15;;;;;;;33.10;24.85;;;11.00;99.90;;;;;;5051885;28;20550;-72
2021/09/08 03:49:45;;;;;;;32.20;24.50;;;11.00;99.90;;;;;;5051861;28;20029;-71
2021/09/08 03:52:14;;;;;;;33.92;23.90;;;11.00;99.90;;;;;;5051674;28;20032;-73
2021/09/08 03:54:40;;;;;;;32.03;24.17;;;11.00;99.90;;;;;;5050973;28;20025;-71
2021/09/08 03:57:06;;;;;;;33.95;24.85;;;10.90;99.90;;;;;;5050666;28;20031;-72
2021/09/08 03:59:32;;;;;;;33.75;25.95;;;10.90;99.90;;;;;;5051548;28;20445;-72
2021/09/08 04:01:58;;;;;;;33.95;24.83;;;10.90;99.90;;;;;;5051793;28;20027;-72
2021/09/08 04:04:24;;;;;;;32.53;24.10;;;10.90;99.90;;;;;;5043211;28;20097;-71
2021/09/08 04:06:50;;;;;;;38.00;24.13;;;10.90;99.90;;;;;;5031274;28;20107;-73
2021/09/08 04:09:16;;;;;;;34.08;24.73;;;10.90;99.90;;;;;;5031651;28;20025;-72
2021/09/08 04:11:42;;;;;;;30.70;23.02;;;11.00;99.90;;;;;;5031716;28;20033;-73
2021/09/08 04:14:09;;;;;;;32.22;24.27;;;11.00;99.90;;;;;;5030654;28;20390;-73
2021/09/08 04:16:34;;;;;;;35.50;26.05;;;11.10;99.90;;;;;;5034586;28;20141;-72
2021/09/08 04:19:00;;;;;;;30.48;24.25;;;11.10;99.90;;;;;;5035693;28;20057;-73
2021/09/08 04:21:26;;;;;;;33.42;24.85;;;11.20;99.90;;;;;;5035640;28;20028;-73
2021/09/08 04:23:51;;;;;;;33.03;23.58;;;11.20;99.90;;;;;;5035370;28;20044;-73
2021/09/08 04:26:17;;;;;;;41.28;27.80;;;11.30;99.90;;;;;;5034731;28;20034;-72
2021/09/08 04:28:43;;;;;;;43.35;25.35;;;11.40;99.90;;;;;;5035104;28;20025;-73
2021/09/08 04:31:08;;;;;;;56.85;30.17;;;11.40;99.90;;;;;;5035380;28;20095;-72
2021/09/08 04:33:34;;;;;;;48.47;30.33;;;11.40;99.90;;;;;;5035111;28;20372;-74
2021/09/08 04:35:59;;;;;;;60.17;30.95;;;11.50;99.90;;;;;;5034123;28;20384;-73
2021/09/08 04:38:25;;;;;;;51.45;31.42;;;11.40;99.90;;;;;;5035098;28;20025;-72
2021/09/08 04:40:51;;;;;;;69.40;34.13;;;11.40;99.90;;;;;;5032982;28;20033;-75
2021/09/08 04:43:16;;;;;;;68.88;33.10;;;11.40;99.90;;;;;;5021110;28;20025;-75
2021/09/08 04:45:42;;;;;;;54.53;30.60;;;11.40;99.90;;;;;;5014061;28;20384;-77
2021/09/08 04:48:08;;;;;;;47.10;28.98;;;11.30;99.90;;;;;;5022524;28;20026;-77
2021/09/08 04:50:34;;;;;;;36.05;26.08;;;11.30;99.90;;;;;;5034678;28;20033;-74
2021/09/08 04:53:00;;;;;;;35.13;24.65;;;11.20;99.90;;;;;;5033090;28;20494;-74
2021/09/08 04:55:26;;;;;;;35.53;24.08;;;11.20;99.90;;;;;;5032405;28;20022;-74
2021/09/08 04:57:51;;;;;;;35.35;23.35;;;11.20;99.90;;;;;;5034549;28;20080;-76
2021/09/08 05:00:17;;;;;;;33.15;22.60;;;11.20;99.90;;;;;;5037692;28;20028;-77
2021/09/08 05:02:43;;;;;;;34.05;23.13;;;11.10;99.90;;;;;;5056685;28;20016;-78
2021/09/08 05:05:09;;;;;;;40.42;25.77;;;11.00;99.90;;;;;;5072011;28;20009;-80
2021/09/08 05:07:34;;;;;;;35.13;24.48;;;11.00;99.90;;;;;;5078282;28;20032;-79
2021/09/08 05:10:00;;;;;;;30.65;23.95;;;11.00;99.90;;;;;;5049905;28;20040;-76
2021/09/08 05:12:26;;;;;;;29.52;22.20;;;10.90;99.90;;;;;;5032530;28;20456;-76
2021/09/08 05:14:51;;;;;;;38.10;26.17;;;10.90;99.90;;;;;;5022135;28;20025;-78
2021/09/08 05:17:17;;;;;;;39.35;25.67;;;10.90;99.90;;;;;;5027192;28;20067;-77
2021/09/08 05:19:43;;;;;;;39.65;26.58;;;10.90;99.90;;;;;;5035318;28;20022;-78
2021/09/08 05:22:08;;;;;;;39.88;26.52;;;10.90;99.90;;;;;;5034347;28;20014;-80
2021/09/08 05:24:34;;;;;;;40.15;25.23;;;11.00;99.90;;;;;;5019164;28;20544;-76
2021/09/08 05:27:00;;;;;;;37.53;26.33;;;10.90;99.90;;;;;;5013441;28;20022;-76
2021/09/08 05:29:25;;;;;;;34.40;24.52;;;10.90;99.90;;;;;;5014213;28;20040;-73
2021/09/08 05:31:51;;;;;;;36.80;24.95;;;10.90;99.90;;;;;;5014569;28;20086;-73
2021/09/08 05:34:16;;;;;;;38.97;26.58;;;11.00;99.90;;;;;;5027203;28;20048;-78
2021/09/08 05:36:42;;;;;;;38.67;25.63;;;10.90;99.90;;;;;;5046722;28;20037;-73
2021/09/08 05:39:08;;;;;;;35.50;25.65;;;10.90;99.90;;;;;;5032218;28;20026;-75
2021/09/08 05:41:33;;;;;;;36.75;24.40;;;10.90;99.90;;;;;;5033458;28;20106;-74
2021/09/08 05:43:59;;;;;;;38.85;27.27;;;10.90;99.90;;;;;;5034731;28;20028;-74
2021/09/08 05:46:25;;;;;;;35.35;25.30;;;11.00;99.90;;;;;;5033255;28;20034;-74
2021/09/08 05:48:50;;;;;;;35.03;26.13;;;11.00;99.90;;;;;;5031847;28;20438;-75
2021/09/08 05:51:16;;;;;;;36.63;27.27;;;11.00;99.90;;;;;;5033389;28;20487;-75
2021/09/08 05:53:42;;;;;;;37.35;26.02;;;10.90;99.90;;;;;;5033761;28;20515;-74
2021/09/08 05:56:07;;;;;;;33.40;25.50;;;11.00;99.90;;;;;;5033005;28;20037;-73
2021/09/08 05:58:33;;;;;;;36.85;25.83;;;11.10;99.90;;;;;;5033571;28;20472;-75
2021/09/08 06:00:58;;;;;;;35.00;25.70;;;11.10;99.90;;;;;;5032227;28;20391;-74
2021/09/08 06:03:24;;;;;;;35.90;24.33;;;11.00;99.90;;;;;;5033348;28;20033;-74
2021/09/08 06:05:50;;;;;;;29.50;21.67;;;11.00;99.90;;;;;;5052338;28;20104;-74
2021/09/08 06:08:16;;;;;;;24.70;21.27;;;10.90;99.90;;;;;;5052974;28;20107;-74
2021/09/08 06:10:42;;;;;;;25.85;20.80;;;10.90;99.90;;;;;;5043074;28;20022;-71
2021/09/08 06:13:08;;;;;;;28.25;21.83;;;11.00;99.90;;;;;;5022147;28;20048;-75
2021/09/08 06:15:34;;;;;;;24.40;20.95;;;11.00;99.90;;;;;;5023037;28;20474;-74
2021/09/08 06:18:02;;;;;;;24.23;21.23;;;11.00;99.90;;;;;;5031511;28;20029;-74
2021/09/08 06:20:28;;;;;;;26.98;21.70;;;11.10;99.90;;;;;;5033074;28;20021;-74
2021/09/08 06:22:54;;;;;;;27.85;22.73;;;11.20;99.90;;;;;;5033046;28;20108;-75
2021/09/08 06:25:19;;;;;;;25.10;20.77;;;11.20;99.90;;;;;;5032921;28;20088;-74
2021/09/08 06:27:45;;;;;;;27.38;20.88;;;11.10;99.90;;;;;;5032554;28;20675;-73
2021/09/08 06:30:11;;;;;;;28.83;21.20;;;11.30;99.90;;;;;;5032846;28;20101;-74
2021/09/08 06:32:37;;;;;;;27.27;21.50;;;11.30;99.90;;;;;;5031816;28;20028;-74
2021/09/08 06:35:03;;;;;;;31.73;22.77;;;11.40;99.90;;;;;;5032652;28;20053;-74
2021/09/08 06:37:28;;;;;;;27.45;22.05;;;11.60;99.90;;;;;;5031228;28;20045;-73
2021/09/08 06:39:54;;;;;;;28.65;21.10;;;11.60;99.90;;;;;;5032474;28;20018;-74
2021/09/08 06:42:20;;;;;;;26.60;20.02;;;11.60;99.90;;;;;;5033243;28;20072;-74
2021/09/08 06:44:49;;;;;;;24.05;19.50;;;11.70;99.90;;;;;;5032729;28;20045;-76
2021/09/08 06:47:15;;;;;;;23.55;18.48;;;11.60;99.90;;;;;;5033208;28;20029;-75
2021/09/08 06:49:41;;;;;;;21.75;18.42;;;11.70;99.90;;;;;;5031686;28;20048;-74
2021/09/08 06:52:07;;;;;;;23.13;18.95;;;11.80;99.90;;;;;;5033892;28;20033;-74
2021/09/08 06:54:32;;;;;;;20.20;16.92;;;11.80;99.90;;;;;;5035791;28;20068;-75
2021/09/08 06:56:58;;;;;;;23.85;18.17;;;11.90;99.90;;;;;;5036204;28;20480;-75
2021/09/08 06:59:24;;;;;;;23.02;17.77;;;12.10;99.90;;;;;;5031930;28;20028;-74
2021/09/08 07:01:49;;;;;;;24.83;18.70;;;12.10;99.90;;;;;;5032008;28;20638;-74
2021/09/08 07:04:15;;;;;;;20.55;16.83;;;12.20;99.90;;;;;;5039664;28;20025;-75
2021/09/08 07:06:41;;;;;;;21.20;17.05;;;12.20;99.90;;;;;;5053083;28;20097;-74
2021/09/08 07:09:09;;;;;;;26.15;18.58;;;12.20;99.90;;;;;;5053105;28;20025;-73
2021/09/08 07:11:35;;;;;;;24.45;17.75;;;12.30;99.90;;;;;;5051676;28;20036;-74
2021/09/08 07:14:00;;;;;;;27.00;20.17;;;12.30;99.90;;;;;;5052814;28;20017;-74
2021/09/08 07:16:26;;;;;;;24.92;19.40;;;12.50;99.90;;;;;;5051952;28;20029;-72
2021/09/08 07:18:52;;;;;;;24.17;18.85;;;12.60;99.90;;;;;;5052452;28;20364;-74
2021/09/08 07:21:17;;;;;;;20.55;17.33;;;12.70;99.90;;;;;;5051390;28;20052;-73
2021/09/08 07:23:43;;;;;;;23.77;18.35;;;12.90;99.90;;;;;;5051147;28;20052;-74
2021/09/08 07:26:09;;;;;;;19.20;16.73;;;13.00;99.90;;;;;;5051664;28;20067;-74
2021/09/08 07:28:35;;;;;;;20.08;17.25;;;13.20;99.90;;;;;;5052253;28;20035;-74
2021/09/08 07:31:00;;;;;;;22.42;16.90;;;13.40;99.90;;;;;;5052666;28;20029;-74
2021/09/08 07:33:26;;;;;;;22.40;17.33;;;13.50;99.90;;;;;;5052831;28;20098;-73
2021/09/08 07:35:52;;;;;;;20.00;16.70;;;13.70;99.90;;;;;;5012031;28;20545;-73
2021/09/08 07:38:18;;;;;;;22.08;16.35;;;14.00;99.90;;;;;;5012546;28;20083;-73
2021/09/08 07:40:45;;;;;;;18.67;15.60;;;14.10;99.90;;;;;;5011510;28;20021;-73
2021/09/08 07:43:11;;;;;;;25.23;15.10;;;14.30;99.90;;;;;;5012854;28;20025;-73
2021/09/08 07:45:37;;;;;;;17.92;13.88;;;14.50;99.90;;;;;;5012249;28;20057;-73
2021/09/08 07:48:03;;;;;;;17.17;13.18;;;15.00;99.90;;;;;;5012476;28;20096;-72
2021/09/08 07:50:29;;;;;;;15.77;12.27;;;15.30;99.90;;;;;;5012169;28;20033;-73
2021/09/08 07:52:54;;;;;;;15.18;12.00;;;15.40;99.90;;;;;;5012033;28;20026;-73
2021/09/08 07:55:20;;;;;;;14.48;11.75;;;15.60;99.90;;;;;;5011534;28;20480;-74
2021/09/08 07:57:46;;;;;;;11.90;10.70;;;15.90;99.90;;;;;;5012259;28;20101;-73
2021/09/08 08:00:12;;;;;;;15.60;11.82;;;15.90;99.90;;;;;;5010639;28;20037;-75
2021/09/08 08:02:49;;;;;;;12.50;11.02;;;16.10;99.90;;;;;;5012016;28;20038;-74
2021/09/08 08:05:15;;;;;;;13.75;9.90;;;16.30;99.90;;;;;;5040904;28;20102;-73
2021/09/08 08:07:45;;;;;;;14.15;10.50;;;16.80;99.90;;;;;;5050663;28;20052;-73
2021/09/08 08:10:12;;;;;;;11.82;9.18;;;17.50;99.90;;;;;;5029447;28;20026;-75
2021/09/08 08:12:38;;;;;;;10.48;9.38;;;17.70;99.90;;;;;;5017845;28;20038;-75
2021/09/08 08:15:06;;;;;;;10.90;9.77;;;18.40;99.90;;;;;;5016973;28;20026;-76
2021/09/08 08:17:31;;;;;;;12.75;9.60;;;18.80;99.90;;;;;;5038450;28;20029;-75
2021/09/08 08:19:58;;;;;;;9.85;8.95;;;19.30;99.90;;;;;;5051241;28;20423;-75
2021/09/08 08:22:24;;;;;;;12.82;9.25;;;19.60;99.90;;;;;;5050787;28;20013;-75
2021/09/08 08:24:49;;;;;;;11.85;9.60;;;19.00;99.90;;;;;;5050719;28;20029;-75
2021/09/08 08:27:15;;;;;;;10.48;8.95;;;19.80;99.90;;;;;;5046754;28;20096;-75
2021/09/08 08:29:41;;;;;;;12.05;8.50;;;19.90;99.90;;;;;;5031659;28;20040;-78
2021/09/08 08:32:07;;;;;;;9.73;7.95;;;20.20;99.90;;;;;;5030190;28;20029;-78
2021/09/08 08:34:33;;;;;;;10.88;8.57;;;21.10;99.90;;;;;;5025363;28;20107;-76
2021/09/08 08:36:58;;;;;;;9.60;8.60;;;21.00;99.90;;;;;;5034955;28;20038;-77
2021/09/08 08:39:24;;;;;;;9.68;8.00;;;21.00;99.90;;;;;;5036780;28;20018;-78
2021/09/08 08:41:50;;;;;;;8.68;7.80;;;21.20;99.90;;;;;;5037260;28;20028;-77
2021/09/08 08:44:22;;;;;;;10.07;8.45;;;21.60;99.90;;;;;;5037057;28;20025;-77
2021/09/08 08:46:49;;;;;;;11.00;8.05;;;21.50;99.90;;;;;;5042894;28;20041;-78
2021/09/08 08:49:15;;;;;;;9.43;8.15;;;21.10;99.90;;;;;;5051605;28;20052;-73
2021/09/08 08:51:41;;;;;;;11.27;8.48;;;21.20;99.90;;;;;;5042882;28;20056;-76
2021/09/08 08:54:06;;;;;;;14.30;8.25;;;22.00;99.90;;;;;;5031004;28;20051;-74
2021/09/08 08:56:32;;;;;;;9.43;8.52;;;22.70;99.90;;;;;;5028603;28;20421;-73
2021/09/08 08:58:58;;;;;;;10.70;7.57;;;23.10;99.90;;;;;;5030911;28;20021;-74
2021/09/08 09:01:26;;;;;;;8.15;7.40;;;23.40;99.90;;;;;;5031072;28;20029;-73
2021/09/08 09:04:03;;;;;;;10.35;7.68;;;23.50;99.90;;;;;;5033976;28;20036;-77
2021/09/08 09:06:29;;;;;;;8.23;7.43;;;23.20;99.90;;;;;;5053431;28;20046;-74
2021/09/08 09:09:14;;;;;;;9.77;7.78;;;23.50;99.90;;;;;;5039225;28;20030;-75
2021/09/08 09:11:42;;;;;;;7.60;6.80;;;23.90;99.90;;;;;;5014546;28;20026;-75
2021/09/08 09:14:09;;;;;;;11.15;7.20;;;23.90;99.90;;;;;;5014791;28;20037;-75
2021/09/08 09:16:37;;;;;;;8.75;7.60;;;24.40;99.90;;;;;;5021582;28;20366;-75
2021/09/08 09:19:03;;;;;;;8.48;7.13;;;24.90;99.30;;;;;;5015778;28;20033;-75
2021/09/08 09:21:29;;;;;;;8.45;7.65;;;24.90;98.90;;;;;;5014095;28;20040;-76
2021/09/08 09:23:58;;;;;;;8.73;7.53;;;25.20;98.90;;;;;;5014256;28;20516;-76
2021/09/08 09:26:27;;;;;;;8.65;7.32;;;25.30;97.40;;;;;;5012589;28;20029;-76
2021/09/08 09:28:54;;;;;;;8.63;7.80;;;24.90;97.80;;;;;;5013585;28;20388;-76
2021/09/08 09:31:24;;;;;;;9.00;7.15;;;25.40;98.10;;;;;;5015264;28;20071;-77
2021/09/08 09:33:55;;;;;;;8.00;7.20;;;25.40;97.60;;;;;;5038068;28;20022;-76
2021/09/08 09:36:22;;;;;;;;;;;25.40;96.60;;;;;;5034030;28;20115;-76
2021/09/08 09:38:49;;;;;;;9.23;7.55;;;25.40;96.80;;;;;;5033632;28;19920;-76
2021/09/08 09:41:36;;;;;;;7.00;6.40;;;24.80;98.40;;;;;;5032419;28;20029;-76
2021/09/08 09:44:09;;;;;;;8.32;7.53;;;25.20;97.40;;;;;;5033442;28;20495;-77
2021/09/08 09:46:39;;;;;;;8.48;7.68;;;26.30;97.80;;;;;;5032763;28;20452;-76
2021/09/08 09:49:05;;;;;;;8.10;7.40;;;26.80;95.70;;;;;;5033215;28;20021;-75
2021/09/08 09:51:31;;;;;;;8.07;7.28;;;26.70;94.80;;;;;;5033639;28;20071;-74
2021/09/08 09:53:57;;;;;;;7.88;7.05;;;27.10;94.20;;;;;;5033649;28;20022;-77
2021/09/08 09:56:23;;;;;;;7.20;6.57;;;27.00;94.90;;;;;;5032853;28;20040;-75
2021/09/08 09:58:49;;;;;;;7.78;6.70;;;28.00;95.70;;;;;;5033255;28;20017;-75
2021/09/08 10:01:14;;;;;;;8.20;6.95;;;28.90;93.20;;;;;;5033003;28;20017;-76
2021/09/08 10:03:40;;;;;;;7.55;6.57;;;29.20;91.70;;;;;;5032175;28;20030;-76
2021/09/08 10:06:06;;;;;;;6.93;6.32;;;29.40;89.80;;;;;;5052309;28;20052;-77
2021/09/08 10:08:38;;;;;;;6.88;6.22;;;29.20;91.10;;;;;;5052819;28;20028;-75
2021/09/08 10:11:07;;;;;;;9.48;6.50;;;29.70;90.10;;;;;;5051554;28;20021;-75
2021/09/08 10:13:44;;;;;;;8.77;6.72;;;29.90;89.70;;;;;;5052682;28;20372;-76
2021/09/08 10:16:10;;;;;;;6.45;5.90;;;30.60;90.10;;;;;;5051820;28;20104;-76
2021/09/08 10:18:36;;;;;;;8.50;6.75;;;30.60;88.10;;;;;;5052895;28;20029;-77
2021/09/08 10:21:08;;;;;;;7.70;6.30;;;31.10;86.80;;;;;;5052831;28;20025;-75
2021/09/08 10:23:55;;;;;;;6.68;5.43;;;31.10;82.70;;;;;;5051206;28;20495;-77
2021/09/08 10:26:28;;;;;;;9.02;6.15;;;30.50;86.10;;;;;;5051824;28;20025;-76
2021/09/08 10:28:57;;;;;;;6.18;5.63;;;30.70;83.50;;;;;;5034850;28;20075;-76
2021/09/08 10:31:24;;;;;;;5.78;5.38;;;30.60;83.50;;;;;;5013138;28;20025;-76
2021/09/08 10:33:55;;;;;;;7.72;6.18;;;30.10;85.70;;;;;;5016059;28;20018;-77
2021/09/08 10:36:21;;;;;;;6.40;5.95;;;31.10;86.00;;;;;;5051961;28;20391;-76
2021/09/08 10:39:08;;;;;;;6.38;5.78;;;31.80;81.70;;;;;;5052292;28;20039;-76
2021/09/08 10:41:54;;;;;;;7.82;6.18;;;32.30;79.40;;;;;;5052378;28;20028;-75
2021/09/08 10:44:46;;;;;;;9.00;6.25;;;32.30;77.70;;;;;;5051886;28;20024;-76
2021/09/08 10:47:13;;;;;;;6.28;5.55;;;33.50;76.50;;;;;;5052394;28;20061;-78
2021/09/08 10:49:39;;;;;;;6.25;5.45;;;34.30;73.90;;;;;;5052139;28;20031;-77
2021/09/08 10:52:11;;;;;;;6.28;5.72;;;33.60;75.30;;;;;;5051992;28;20032;-78
2021/09/08 10:54:55;;;;;;;5.72;5.22;;;33.80;73.40;;;;;;5043327;28;20028;-77
2021/09/08 10:57:49;;;;;;;5.55;4.97;;;34.90;73.20;;;;;;5031955;28;20041;-77
2021/09/08 11:00:26;;;;;;;8.73;5.85;;;34.60;69.70;;;;;;5031960;28;20030;-77
2021/09/08 11:02:51;;;;;;;6.07;5.57;;;33.50;71.40;;;;;;5032371;28;20052;-77
2021/09/08 11:05:17;;;;;;;6.30;5.80;;;32.60;72.10;;;;;;5043488;28;20467;-77
2021/09/08 11:07:45;;;;;;;5.40;5.00;;;34.00;74.00;;;;;;5051843;28;20108;-78
2021/09/08 11:10:12;;;;;;;5.60;5.20;;;34.80;67.30;;;;;;5051625;28;20036;-77
2021/09/08 11:12:53;;;;;;;7.78;5.85;;;33.00;69.40;;;;;;5051850;28;20028;-76
2021/09/08 11:15:33;;;;;;;5.80;5.40;;;31.50;74.10;;;;;;5050981;28;20025;-76
2021/09/08 11:17:59;;;;;;;6.43;5.85;;;32.80;77.10;;;;;;5051757;28;20044;-77
2021/09/08 11:20:25;;;;;;;9.40;5.68;;;33.30;72.80;;;;;;5031408;28;20108;-76
2021/09/08 11:23:24;;;;;;;8.88;5.90;;;34.10;69.00;;;;;;5027539;28;20109;-75
2021/09/08 11:25:50;;;;;;;6.03;5.53;;;34.10;70.90;;;;;;5018967;28;20029;-76
2021/09/08 11:28:15;;;;;;;6.82;5.13;;;34.20;70.70;;;;;;5023517;28;20369;-78
2021/09/08 11:30:43;;;;;;;6.10;5.60;;;34.40;67.60;;;;;;5011999;28;20496;-76
2021/09/08 11:33:14;;;;;;;6.15;5.55;;;32.80;71.50;;;;;;5011880;28;20056;-76
2021/09/08 11:35:50;;;;;;;6.30;5.60;;;32.60;73.40;;;;;;5042945;28;20025;-76
2021/09/08 11:38:20;;;;;;;5.60;5.10;;;32.90;70.80;;;;;;5051000;28;20270;-76
2021/09/08 11:40:49;;;;;;;6.38;5.72;;;33.20;72.20;;;;;;5051313;28;20029;-77
2021/09/08 11:43:36;;;;;;;8.77;5.38;;;33.10;69.30;;;;;;5049940;28;20053;-76
2021/09/08 11:46:26;;;;;;;9.63;6.25;;;33.00;70.90;;;;;;5050749;28;20051;-76
2021/09/08 11:49:03;;;;;;;5.65;5.15;;;32.10;71.70;;;;;;5051358;28;20031;-77
2021/09/08 11:51:33;;;;;;;7.40;5.88;;;32.80;72.70;;;;;;5051114;28;20430;-77
2021/09/08 11:54:02;;;;;;;6.20;5.70;;;33.50;69.10;;;;;;5051121;28;20048;-76
2021/09/08 11:56:27;;;;;;;6.28;5.57;;;33.30;69.20;;;;;;5052076;28;20025;-75
2021/09/08 11:58:54;;;;;;;6.40;5.90;;;33.20;68.80;;;;;;5054269;28;20031;-76
2021/09/08 12:01:22;;;;;;;6.57;5.95;;;33.00;67.70;;;;;;5051048;28;20033;-75
2021/09/08 12:03:52;;;;;;;6.20;5.50;;;32.50;68.80;;;;;;5050842;28;20028;-75
2021/09/08 12:06:20;;;;;;;7.63;6.03;;;32.10;70.00;;;;;;5050085;28;20037;-75
2021/09/08 12:08:49;;;;;;;6.55;5.72;;;31.00;71.10;;;;;;5051361;28;20026;-75
2021/09/08 12:11:36;;;;;;;6.28;5.70;;;31.00;73.00;;;;;;5050892;28;20024;-75
2021/09/08 12:14:47;;;;;;;6.38;5.78;;;31.70;74.70;;;;;;5051256;28;20422;-75
2021/09/08 12:17:25;;;;;;;6.72;5.88;;;32.40;70.90;;;;;;5047683;28;20075;-75
2021/09/08 12:19:57;;;;;;;9.60;6.35;;;32.20;70.30;;;;;;5051644;28;20021;-80
2021/09/08 12:22:26;;;;;;;9.77;5.85;;;32.10;71.30;;;;;;5052129;28;20083;-80
2021/09/08 12:24:57;;;;;;;6.45;5.80;;;32.70;70.50;;;;;;5052756;28;20025;-79
2021/09/08 12:27:30;;;;;;;;;;;32.70;69.70;;;;;;5052964;28;20382;-79
2021/09/08 12:30:19;;;;;;;6.18;5.60;;;33.20;70.00;;;;;;5033733;28;19905;-79
2021/09/08 12:32:55;;;;;;;6.03;5.47;;;32.60;68.80;;;;;;5022303;28;20034;-80
2021/09/08 12:35:47;;;;;;;6.53;5.93;;;32.50;70.00;;;;;;5047221;28;20514;-79